sensor_id;sensor_type;location;lat;lon;timestamp;temperature;humidity
12434;DHT22;6281;49.038;8.372;2024-01-10T00:01:48;-2.60;99.90
12434;DHT22;6281;49.038;8.372;2024-01-10T00:04:15;-2.40;99.90
12434;DHT22;6281;49.038;8.372;2024-01-10T00:06:42;-2.30;99.90
12434;DHT22;6281;49.038;8.372;2024-01-10T00:09:10;-2.40;99.90
12434;DHT22;6281;49.038;8.372;2024-01-10T00:11:37;-2.30;99.90
12434;DHT22;6281;49.038;8.372;2024-01-10T00:14:05;-2.40;99.90
12434;DHT22;6281;49.038;8.372;2024-01-10T00:16:32;-2.30;99.90
12434;DHT22;6281;49.038;8.372;2024-01-10T00:18:59;-2.30;99.90
12434;DHT22;6281;49.038;8.372;2024-01-10T00:21:26;-2.30;99.90
12434;DHT22;6281;49.038;8.372;2024-01-10T00:23:53;-2.30;99.90
12434;DHT22;6281;49.038;8.372;2024-01-10T00:26:21;-2.30;99.90
12434;DHT22;6281;49.038;8.372;2024-01-10T00:28:48;-2.40;99.90
12434;DHT22;6281;49.038;8.372;2024-01-10T00:31:15;-2.40;99.90
12434;DHT22;6281;49.038;8.372;2024-01-10T00:33:42;-2.40;99.90
12434;DHT22;6281;49.038;8.372;2024-01-10T00:36:09;-2.50;99.90
12434;DHT22;6281;49.038;8.372;2024-01-10T00:38:36;-2.50;99.90
12434;DHT22;6281;49.038;8.372;2024-01-10T00:41:03;-2.40;99.90
12434;DHT22;6281;49.038;8.372;2024-01-10T00:43:32;-2.50;99.90
12434;DHT22;6281;49.038;8.372;2024-01-10T00:46:01;-2.50;99.90
12434;DHT22;6281;49.038;8.372;2024-01-10T00:48:28;-2.50;99.90
12434;DHT22;6281;49.038;8.372;2024-01-10T00:50:55;-2.50;99.90
12434;DHT22;6281;49.038;8.372;2024-01-10T00:53:22;-2.50;99.90
12434;DHT22;6281;49.038;8.372;2024-01-10T00:55:49;-2.40;99.90
12434;DHT22;6281;49.038;8.372;2024-01-10T00:58:16;-2.40;99.90
12434;DHT22;6281;49.038;8.372;2024-01-10T01:00:44;-2.20;99.90
12434;DHT22;6281;49.038;8.372;2024-01-10T01:03:11;-2.40;99.90
12434;DHT22;6281;49.038;8.372;2024-01-10T01:05:38;-2.20;99.90
12434;DHT22;6281;49.038;8.372;2024-01-10T01:08:05;-2.30;99.90
12434;DHT22;6281;49.038;8.372;2024-01-10T01:10:33;-2.10;99.90
12434;DHT22;6281;49.038;8.372;2024-01-10T01:13:00;-2.00;99.90
12434;DHT22;6281;49.038;8.372;2024-01-10T01:15:26;-2.00;99.90
12434;DHT22;6281;49.038;8.372;2024-01-10T01:17:55;-1.90;99.90
12434;DHT22;6281;49.038;8.372;2024-01-10T01:20:21;-2.10;99.90
12434;DHT22;6281;49.038;8.372;2024-01-10T01:22:48;-2.10;99.90
12434;DHT22;6281;49.038;8.372;2024-01-10T01:25:15;-2.10;99.90
12434;DHT22;6281;49.038;8.372;2024-01-10T01:27:42;-2.00;99.90
12434;DHT22;6281;49.038;8.372;2024-01-10T01:30:09;-1.90;99.90
12434;DHT22;6281;49.038;8.372;2024-01-10T01:32:37;-1.80;99.90
12434;DHT22;6281;49.038;8.372;2024-01-10T01:35:06;-1.80;99.90
12434;DHT22;6281;49.038;8.372;2024-01-10T01:37:32;-1.80;99.90
12434;DHT22;6281;49.038;8.372;2024-01-10T01:39:59;-1.90;99.90
12434;DHT22;6281;49.038;8.372;2024-01-10T01:42:26;-1.90;99.90
12434;DHT22;6281;49.038;8.372;2024-01-10T01:44:53;-1.90;99.90
12434;DHT22;6281;49.038;8.372;2024-01-10T01:47:20;-2.00;99.90
12434;DHT22;6281;49.038;8.372;2024-01-10T01:49:47;-2.00;99.90
12434;DHT22;6281;49.038;8.372;2024-01-10T01:52:15;-1.90;99.90
12434;DHT22;6281;49.038;8.372;2024-01-10T01:54:42;-1.90;99.90
12434;DHT22;6281;49.038;8.372;2024-01-10T01:57:09;-2.10;99.90
12434;DHT22;6281;49.038;8.372;2024-01-10T01:59:36;-2.20;99.90
12434;DHT22;6281;49.038;8.372;2024-01-10T02:02:04;-2.10;99.90
12434;DHT22;6281;49.038;8.372;2024-01-10T02:04:31;-2.00;99.90
12434;DHT22;6281;49.038;8.372;2024-01-10T02:06:59;-2.30;99.90
12434;DHT22;6281;49.038;8.372;2024-01-10T02:09:27;-2.20;99.90
12434;DHT22;6281;49.038;8.372;2024-01-10T02:11:54;-2.20;99.90
12434;DHT22;6281;49.038;8.372;2024-01-10T02:14:22;-2.20;99.90
12434;DHT22;6281;49.038;8.372;2024-01-10T02:16:48;-2.10;99.90
12434;DHT22;6281;49.038;8.372;2024-01-10T02:19:20;-2.20;99.90
12434;DHT22;6281;49.038;8.372;2024-01-10T02:21:47;-2.30;99.90
12434;DHT22;6281;49.038;8.372;2024-01-10T02:24:14;-2.00;99.90
12434;DHT22;6281;49.038;8.372;2024-01-10T02:26:42;-2.30;99.90
12434;DHT22;6281;49.038;8.372;2024-01-10T02:29:09;-2.10;99.90
12434;DHT22;6281;49.038;8.372;2024-01-10T02:31:36;-2.10;99.90
12434;DHT22;6281;49.038;8.372;2024-01-10T02:34:03;-2.30;99.90
12434;DHT22;6281;49.038;8.372;2024-01-10T02:36:30;-2.30;99.90
12434;DHT22;6281;49.038;8.372;2024-01-10T02:38:57;-2.30;99.90
12434;DHT22;6281;49.038;8.372;2024-01-10T02:41:23;-2.10;99.90
12434;DHT22;6281;49.038;8.372;2024-01-10T02:43:52;-2.10;99.90
12434;DHT22;6281;49.038;8.372;2024-01-10T02:46:19;-2.30;99.90
12434;DHT22;6281;49.038;8.372;2024-01-10T02:48:48;-2.20;99.90
12434;DHT22;6281;49.038;8.372;2024-01-10T02:51:14;-2.00;99.90
12434;DHT22;6281;49.038;8.372;2024-01-10T02:53:41;-2.00;99.90
12434;DHT22;6281;49.038;8.372;2024-01-10T02:56:09;-2.00;99.90
12434;DHT22;6281;49.038;8.372;2024-01-10T02:58:35;-2.00;99.90
12434;DHT22;6281;49.038;8.372;2024-01-10T03:01:04;-1.80;99.90
12434;DHT22;6281;49.038;8.372;2024-01-10T03:03:31;-2.00;99.90
12434;DHT22;6281;49.038;8.372;2024-01-10T03:05:57;-1.80;99.90
12434;DHT22;6281;49.038;8.372;2024-01-10T03:08:24;-1.90;99.90
12434;DHT22;6281;49.038;8.372;2024-01-10T03:10:51;-1.90;99.90
12434;DHT22;6281;49.038;8.372;2024-01-10T03:13:18;-1.80;99.90
12434;DHT22;6281;49.038;8.372;2024-01-10T03:15:45;-1.90;99.90
12434;DHT22;6281;49.038;8.372;2024-01-10T03:18:13;-2.10;99.90
12434;DHT22;6281;49.038;8.372;2024-01-10T03:20:40;-2.00;99.90
12434;DHT22;6281;49.038;8.372;2024-01-10T03:23:07;-2.00;99.90
12434;DHT22;6281;49.038;8.372;2024-01-10T03:25:34;-2.10;99.90
12434;DHT22;6281;49.038;8.372;2024-01-10T03:28:01;-2.10;99.90
12434;DHT22;6281;49.038;8.372;2024-01-10T03:30:28;-2.00;99.90
12434;DHT22;6281;49.038;8.372;2024-01-10T03:32:55;-1.90;99.90
12434;DHT22;6281;49.038;8.372;2024-01-10T03:35:23;-2.00;99.90
12434;DHT22;6281;49.038;8.372;2024-01-10T03:37:50;-2.20;99.90
12434;DHT22;6281;49.038;8.372;2024-01-10T03:40:17;-2.20;99.90
12434;DHT22;6281;49.038;8.372;2024-01-10T03:42:43;-2.40;99.90
12434;DHT22;6281;49.038;8.372;2024-01-10T03:45:11;-2.20;99.90
12434;DHT22;6281;49.038;8.372;2024-01-10T03:47:37;-2.20;99.90
12434;DHT22;6281;49.038;8.372;2024-01-10T03:50:05;-2.40;99.90
12434;DHT22;6281;49.038;8.372;2024-01-10T03:52:34;-2.30;99.90
12434;DHT22;6281;49.038;8.372;2024-01-10T03:55:00;-2.20;99.90
12434;DHT22;6281;49.038;8.372;2024-01-10T03:57:27;-2.30;99.90
12434;DHT22;6281;49.038;8.372;2024-01-10T03:59:54;-2.40;99.90
12434;DHT22;6281;49.038;8.372;2024-01-10T04:02:21;-2.20;99.90
12434;DHT22;6281;49.038;8.372;2024-01-10T04:04:48;-2.20;99.90
12434;DHT22;6281;49.038;8.372;2024-01-10T04:07:15;-2.00;99.90
12434;DHT22;6281;49.038;8.372;2024-01-10T04:09:43;-2.00;99.90
12434;DHT22;6281;49.038;8.372;2024-01-10T04:12:10;-2.00;99.90
12434;DHT22;6281;49.038;8.372;2024-01-10T04:14:37;-2.10;99.90
12434;DHT22;6281;49.038;8.372;2024-01-10T04:17:04;-2.20;99.90
12434;DHT22;6281;49.038;8.372;2024-01-10T04:19:32;-2.20;99.90
12434;DHT22;6281;49.038;8.372;2024-01-10T04:21:59;-2.10;99.90
12434;DHT22;6281;49.038;8.372;2024-01-10T04:24:26;-2.10;99.90
12434;DHT22;6281;49.038;8.372;2024-01-10T04:26:54;-2.00;99.90
12434;DHT22;6281;49.038;8.372;2024-01-10T04:29:21;-2.10;99.90
12434;DHT22;6281;49.038;8.372;2024-01-10T04:31:48;-2.10;99.90
12434;DHT22;6281;49.038;8.372;2024-01-10T04:34:15;-2.10;99.90
12434;DHT22;6281;49.038;8.372;2024-01-10T04:36:42;-2.30;99.90
12434;DHT22;6281;49.038;8.372;2024-01-10T04:39:09;-2.40;99.90
12434;DHT22;6281;49.038;8.372;2024-01-10T04:41:35;-2.20;99.90
12434;DHT22;6281;49.038;8.372;2024-01-10T04:44:04;-2.20;99.90
12434;DHT22;6281;49.038;8.372;2024-01-10T04:46:31;-2.30;99.90
12434;DHT22;6281;49.038;8.372;2024-01-10T04:48:59;-2.40;99.90
12434;DHT22;6281;49.038;8.372;2024-01-10T04:51:26;-2.20;99.90
12434;DHT22;6281;49.038;8.372;2024-01-10T04:53:52;-2.10;99.90
12434;DHT22;6281;49.038;8.372;2024-01-10T04:56:20;-2.40;99.90
12434;DHT22;6281;49.038;8.372;2024-01-10T04:58:47;-2.40;99.90
12434;DHT22;6281;49.038;8.372;2024-01-10T05:01:15;-2.30;99.90
12434;DHT22;6281;49.038;8.372;2024-01-10T05:03:42;-2.30;99.90
12434;DHT22;6281;49.038;8.372;2024-01-10T05:06:09;-2.10;99.90
12434;DHT22;6281;49.038;8.372;2024-01-10T05:08:36;-2.30;99.90
12434;DHT22;6281;49.038;8.372;2024-01-10T05:11:03;-2.30;99.90
12434;DHT22;6281;49.038;8.372;2024-01-10T05:13:30;-2.20;99.90
12434;DHT22;6281;49.038;8.372;2024-01-10T05:15:57;-2.40;99.90
12434;DHT22;6281;49.038;8.372;2024-01-10T05:18:25;-2.30;99.90
12434;DHT22;6281;49.038;8.372;2024-01-10T05:20:51;-2.20;99.90
12434;DHT22;6281;49.038;8.372;2024-01-10T05:23:18;-2.20;99.90
12434;DHT22;6281;49.038;8.372;2024-01-10T05:25:46;-2.20;99.90
12434;DHT22;6281;49.038;8.372;2024-01-10T05:28:13;-2.10;99.90
12434;DHT22;6281;49.038;8.372;2024-01-10T05:30:39;-2.20;99.90
12434;DHT22;6281;49.038;8.372;2024-01-10T05:33:08;-2.20;99.90
12434;DHT22;6281;49.038;8.372;2024-01-10T05:35:36;-2.10;99.90
12434;DHT22;6281;49.038;8.372;2024-01-10T05:38:03;-2.20;99.90
12434;DHT22;6281;49.038;8.372;2024-01-10T05:40:30;-2.20;99.90
12434;DHT22;6281;49.038;8.372;2024-01-10T05:42:57;-2.40;99.90
12434;DHT22;6281;49.038;8.372;2024-01-10T05:45:25;-2.40;99.90
12434;DHT22;6281;49.038;8.372;2024-01-10T05:47:52;-2.40;99.90
12434;DHT22;6281;49.038;8.372;2024-01-10T05:50:19;-2.30;99.90
12434;DHT22;6281;49.038;8.372;2024-01-10T05:52:47;-2.30;99.90
12434;DHT22;6281;49.038;8.372;2024-01-10T05:55:14;-2.30;99.90
12434;DHT22;6281;49.038;8.372;2024-01-10T05:57:41;-2.20;99.90
12434;DHT22;6281;49.038;8.372;2024-01-10T06:00:09;-2.40;99.90
12434;DHT22;6281;49.038;8.372;2024-01-10T06:02:36;-2.40;99.90
12434;DHT22;6281;49.038;8.372;2024-01-10T06:05:05;-2.20;99.90
12434;DHT22;6281;49.038;8.372;2024-01-10T06:07:32;-2.30;99.90
12434;DHT22;6281;49.038;8.372;2024-01-10T06:10:01;-2.30;99.90
12434;DHT22;6281;49.038;8.372;2024-01-10T06:12:28;-2.20;99.90
12434;DHT22;6281;49.038;8.372;2024-01-10T06:14:54;-2.20;99.90
12434;DHT22;6281;49.038;8.372;2024-01-10T06:17:21;-2.30;99.90
12434;DHT22;6281;49.038;8.372;2024-01-10T06:19:49;-2.20;99.90
12434;DHT22;6281;49.038;8.372;2024-01-10T06:22:16;-2.20;99.90
12434;DHT22;6281;49.038;8.372;2024-01-10T06:24:44;-2.10;99.90
12434;DHT22;6281;49.038;8.372;2024-01-10T06:27:12;-2.10;99.90
12434;DHT22;6281;49.038;8.372;2024-01-10T06:29:39;-2.30;99.90
12434;DHT22;6281;49.038;8.372;2024-01-10T06:32:06;-2.20;99.90
12434;DHT22;6281;49.038;8.372;2024-01-10T06:34:33;-2.30;99.90
12434;DHT22;6281;49.038;8.372;2024-01-10T06:37:00;-2.30;99.90
12434;DHT22;6281;49.038;8.372;2024-01-10T06:39:27;-2.30;99.90
12434;DHT22;6281;49.038;8.372;2024-01-10T06:41:54;-2.30;99.90
12434;DHT22;6281;49.038;8.372;2024-01-10T06:44:22;-2.30;99.90
12434;DHT22;6281;49.038;8.372;2024-01-10T06:46:49;-2.40;99.90
12434;DHT22;6281;49.038;8.372;2024-01-10T06:49:16;-2.70;99.90
12434;DHT22;6281;49.038;8.372;2024-01-10T06:51:43;-2.30;99.90
12434;DHT22;6281;49.038;8.372;2024-01-10T06:54:10;-2.20;99.90
12434;DHT22;6281;49.038;8.372;2024-01-10T06:56:37;-2.30;99.90
12434;DHT22;6281;49.038;8.372;2024-01-10T06:59:03;-2.10;99.90
12434;DHT22;6281;49.038;8.372;2024-01-10T07:01:32;-2.50;99.90
12434;DHT22;6281;49.038;8.372;2024-01-10T07:03:59;-2.20;99.90
12434;DHT22;6281;49.038;8.372;2024-01-10T07:06:25;-2.10;99.90
12434;DHT22;6281;49.038;8.372;2024-01-10T07:08:52;-2.10;99.90
12434;DHT22;6281;49.038;8.372;2024-01-10T07:11:19;-2.10;99.90
12434;DHT22;6281;49.038;8.372;2024-01-10T07:13:46;-2.00;99.90
12434;DHT22;6281;49.038;8.372;2024-01-10T07:16:13;-2.10;99.90
12434;DHT22;6281;49.038;8.372;2024-01-10T07:18:43;-2.00;99.90
12434;DHT22;6281;49.038;8.372;2024-01-10T07:21:10;-2.00;99.90
12434;DHT22;6281;49.038;8.372;2024-01-10T07:23:37;-2.00;99.90
12434;DHT22;6281;49.038;8.372;2024-01-10T07:26:09;-2.00;99.90
12434;DHT22;6281;49.038;8.372;2024-01-10T07:28:35;-2.00;99.90
12434;DHT22;6281;49.038;8.372;2024-01-10T07:31:04;-2.00;99.90
12434;DHT22;6281;49.038;8.372;2024-01-10T07:33:30;-2.10;99.90
12434;DHT22;6281;49.038;8.372;2024-01-10T07:36:00;-2.40;99.90
12434;DHT22;6281;49.038;8.372;2024-01-10T07:38:27;-2.30;99.90
12434;DHT22;6281;49.038;8.372;2024-01-10T07:40:54;-2.20;99.90
12434;DHT22;6281;49.038;8.372;2024-01-10T07:43:21;-2.10;99.90
12434;DHT22;6281;49.038;8.372;2024-01-10T07:45:48;-2.20;99.90
12434;DHT22;6281;49.038;8.372;2024-01-10T07:48:15;-2.40;99.90
12434;DHT22;6281;49.038;8.372;2024-01-10T07:50:41;-2.30;99.90
12434;DHT22;6281;49.038;8.372;2024-01-10T07:53:10;-2.20;99.90
12434;DHT22;6281;49.038;8.372;2024-01-10T07:55:38;-2.40;99.90
12434;DHT22;6281;49.038;8.372;2024-01-10T07:58:05;-2.40;99.90
12434;DHT22;6281;49.038;8.372;2024-01-10T08:00:32;-2.20;99.90
12434;DHT22;6281;49.038;8.372;2024-01-10T08:02:59;-2.30;99.90
12434;DHT22;6281;49.038;8.372;2024-01-10T08:05:26;-2.10;99.90
12434;DHT22;6281;49.038;8.372;2024-01-10T08:07:53;-1.90;99.90
12434;DHT22;6281;49.038;8.372;2024-01-10T08:10:22;-1.90;99.90
12434;DHT22;6281;49.038;8.372;2024-01-10T08:12:49;-1.90;99.90
12434;DHT22;6281;49.038;8.372;2024-01-10T08:15:18;-1.90;99.90
12434;DHT22;6281;49.038;8.372;2024-01-10T08:17:45;-1.80;99.90
12434;DHT22;6281;49.038;8.372;2024-01-10T08:20:12;-1.90;99.90
12434;DHT22;6281;49.038;8.372;2024-01-10T08:22:40;-1.90;99.90
12434;DHT22;6281;49.038;8.372;2024-01-10T08:25:09;-2.00;99.90
12434;DHT22;6281;49.038;8.372;2024-01-10T08:27:37;-1.70;99.90
12434;DHT22;6281;49.038;8.372;2024-01-10T08:30:05;-1.70;99.90
12434;DHT22;6281;49.038;8.372;2024-01-10T08:32:35;-1.70;99.90
12434;DHT22;6281;49.038;8.372;2024-01-10T08:35:02;-1.70;99.90
12434;DHT22;6281;49.038;8.372;2024-01-10T08:37:31;-1.80;99.90
12434;DHT22;6281;49.038;8.372;2024-01-10T08:39:58;-1.60;99.90
12434;DHT22;6281;49.038;8.372;2024-01-10T08:42:26;-1.70;99.90
12434;DHT22;6281;49.038;8.372;2024-01-10T08:44:55;-1.70;99.90
12434;DHT22;6281;49.038;8.372;2024-01-10T08:47:22;-1.70;99.90
12434;DHT22;6281;49.038;8.372;2024-01-10T08:49:48;-1.70;99.90
12434;DHT22;6281;49.038;8.372;2024-01-10T08:52:16;-1.70;99.90
12434;DHT22;6281;49.038;8.372;2024-01-10T08:54:43;-1.70;99.90
12434;DHT22;6281;49.038;8.372;2024-01-10T08:57:10;-1.60;99.90
12434;DHT22;6281;49.038;8.372;2024-01-10T08:59:37;-1.30;99.90
12434;DHT22;6281;49.038;8.372;2024-01-10T09:02:05;-1.40;99.90
12434;DHT22;6281;49.038;8.372;2024-01-10T09:04:33;-1.50;99.90
12434;DHT22;6281;49.038;8.372;2024-01-10T09:06:59;-1.50;99.90
12434;DHT22;6281;49.038;8.372;2024-01-10T09:09:26;-1.40;99.90
12434;DHT22;6281;49.038;8.372;2024-01-10T09:11:53;-1.30;99.90
12434;DHT22;6281;49.038;8.372;2024-01-10T09:14:20;-1.10;99.90
12434;DHT22;6281;49.038;8.372;2024-01-10T09:16:47;-1.20;99.90
12434;DHT22;6281;49.038;8.372;2024-01-10T09:19:15;-1.10;99.90
12434;DHT22;6281;49.038;8.372;2024-01-10T09:21:42;-1.20;99.90
12434;DHT22;6281;49.038;8.372;2024-01-10T09:24:09;-0.90;99.90
12434;DHT22;6281;49.038;8.372;2024-01-10T09:26:36;-0.60;99.90
12434;DHT22;6281;49.038;8.372;2024-01-10T09:29:04;-0.60;99.90
12434;DHT22;6281;49.038;8.372;2024-01-10T09:31:31;-0.70;99.90
12434;DHT22;6281;49.038;8.372;2024-01-10T09:33:58;-0.70;99.90
12434;DHT22;6281;49.038;8.372;2024-01-10T09:36:26;-0.60;99.90
12434;DHT22;6281;49.038;8.372;2024-01-10T09:38:53;-0.60;99.90
12434;DHT22;6281;49.038;8.372;2024-01-10T09:41:19;-0.80;99.90
12434;DHT22;6281;49.038;8.372;2024-01-10T09:43:46;-0.80;99.90
12434;DHT22;6281;49.038;8.372;2024-01-10T09:46:13;-0.70;99.90
12434;DHT22;6281;49.038;8.372;2024-01-10T09:48:43;-0.60;99.90
12434;DHT22;6281;49.038;8.372;2024-01-10T09:51:10;-0.70;99.90
12434;DHT22;6281;49.038;8.372;2024-01-10T09:53:42;-0.70;99.90
12434;DHT22;6281;49.038;8.372;2024-01-10T09:56:10;-0.90;99.90
12434;DHT22;6281;49.038;8.372;2024-01-10T09:58:37;-0.80;99.90
12434;DHT22;6281;49.038;8.372;2024-01-10T10:01:06;-0.60;99.90
12434;DHT22;6281;49.038;8.372;2024-01-10T10:03:36;-0.80;99.90
12434;DHT22;6281;49.038;8.372;2024-01-10T10:06:04;-0.80;99.90
12434;DHT22;6281;49.038;8.372;2024-01-10T10:08:31;-0.60;99.90
12434;DHT22;6281;49.038;8.372;2024-01-10T10:10:59;-0.60;99.90
12434;DHT22;6281;49.038;8.372;2024-01-10T10:13:27;-0.40;99.90
12434;DHT22;6281;49.038;8.372;2024-01-10T10:15:58;-0.30;99.90
12434;DHT22;6281;49.038;8.372;2024-01-10T10:18:26;-0.10;99.90
12434;DHT22;6281;49.038;8.372;2024-01-10T10:21:06;0.20;99.90
12434;DHT22;6281;49.038;8.372;2024-01-10T10:23:34;0.00;99.90
12434;DHT22;6281;49.038;8.372;2024-01-10T10:26:10;-0.10;99.90
12434;DHT22;6281;49.038;8.372;2024-01-10T10:28:40;-0.10;99.90
12434;DHT22;6281;49.038;8.372;2024-01-10T10:31:07;-0.10;99.90
12434;DHT22;6281;49.038;8.372;2024-01-10T10:33:34;-0.20;99.90
12434;DHT22;6281;49.038;8.372;2024-01-10T10:36:01;-0.20;99.90
12434;DHT22;6281;49.038;8.372;2024-01-10T10:38:28;-0.20;99.90
12434;DHT22;6281;49.038;8.372;2024-01-10T10:40:55;-0.30;99.90
12434;DHT22;6281;49.038;8.372;2024-01-10T10:43:23;-0.20;99.90
12434;DHT22;6281;49.038;8.372;2024-01-10T10:45:50;-0.20;99.90
12434;DHT22;6281;49.038;8.372;2024-01-10T10:48:18;-0.10;99.90
12434;DHT22;6281;49.038;8.372;2024-01-10T10:50:54;0.00;99.90
12434;DHT22;6281;49.038;8.372;2024-01-10T10:53:27;0.30;99.90
12434;DHT22;6281;49.038;8.372;2024-01-10T10:55:57;0.30;99.90
12434;DHT22;6281;49.038;8.372;2024-01-10T10:58:27;0.60;99.90
12434;DHT22;6281;49.038;8.372;2024-01-10T11:00:55;0.80;99.90
12434;DHT22;6281;49.038;8.372;2024-01-10T11:03:24;0.80;99.90
12434;DHT22;6281;49.038;8.372;2024-01-10T11:05:52;0.80;99.90
12434;DHT22;6281;49.038;8.372;2024-01-10T11:08:20;0.60;99.90
12434;DHT22;6281;49.038;8.372;2024-01-10T11:10:50;0.60;99.90
12434;DHT22;6281;49.038;8.372;2024-01-10T11:13:35;0.60;99.90
12434;DHT22;6281;49.038;8.372;2024-01-10T11:16:30;0.60;99.90
12434;DHT22;6281;49.038;8.372;2024-01-10T11:19:20;0.70;99.90
12434;DHT22;6281;49.038;8.372;2024-01-10T11:22:00;0.70;99.90
12434;DHT22;6281;49.038;8.372;2024-01-10T11:24:30;1.00;99.90
12434;DHT22;6281;49.038;8.372;2024-01-10T11:27:07;1.00;99.90
12434;DHT22;6281;49.038;8.372;2024-01-10T11:29:39;0.90;99.90
12434;DHT22;6281;49.038;8.372;2024-01-10T11:32:06;0.80;99.90
12434;DHT22;6281;49.038;8.372;2024-01-10T11:34:35;0.90;99.90
12434;DHT22;6281;49.038;8.372;2024-01-10T11:37:11;1.10;99.90
12434;DHT22;6281;49.038;8.372;2024-01-10T11:39:41;1.00;99.90
12434;DHT22;6281;49.038;8.372;2024-01-10T11:42:08;1.10;99.90
12434;DHT22;6281;49.038;8.372;2024-01-10T11:44:47;1.40;99.90
12434;DHT22;6281;49.038;8.372;2024-01-10T11:47:15;1.40;99.90
12434;DHT22;6281;49.038;8.372;2024-01-10T11:49:53;1.50;99.90
12434;DHT22;6281;49.038;8.372;2024-01-10T11:52:22;1.50;99.90
12434;DHT22;6281;49.038;8.372;2024-01-10T11:54:49;1.50;99.90
12434;DHT22;6281;49.038;8.372;2024-01-10T11:57:20;1.50;99.90
12434;DHT22;6281;49.038;8.372;2024-01-10T11:59:51;2.40;91.50
12434;DHT22;6281;49.038;8.372;2024-01-10T12:02:18;1.90;91.50
12434;DHT22;6281;49.038;8.372;2024-01-10T12:04:45;1.60;88.50
12434;DHT22;6281;49.038;8.372;2024-01-10T12:07:13;1.80;98.00
12434;DHT22;6281;49.038;8.372;2024-01-10T12:09:39;1.70;97.90
12434;DHT22;6281;49.038;8.372;2024-01-10T12:12:07;2.10;92.80
12434;DHT22;6281;49.038;8.372;2024-01-10T12:14:34;2.10;89.50
12434;DHT22;6281;49.038;8.372;2024-01-10T12:17:05;2.00;90.90
12434;DHT22;6281;49.038;8.372;2024-01-10T12:19:35;3.90;56.40
12434;DHT22;6281;49.038;8.372;2024-01-10T12:22:02;3.40;56.10
12434;DHT22;6281;49.038;8.372;2024-01-10T12:24:31;3.60;55.00
12434;DHT22;6281;49.038;8.372;2024-01-10T12:26:58;5.00;47.30
12434;DHT22;6281;49.038;8.372;2024-01-10T12:29:25;7.20;42.00
12434;DHT22;6281;49.038;8.372;2024-01-10T12:31:53;6.10;38.30
12434;DHT22;6281;49.038;8.372;2024-01-10T12:34:21;6.90;37.80
12434;DHT22;6281;49.038;8.372;2024-01-10T12:36:48;7.10;38.00
12434;DHT22;6281;49.038;8.372;2024-01-10T12:39:15;6.80;38.20
12434;DHT22;6281;49.038;8.372;2024-01-10T12:41:42;6.90;35.70
12434;DHT22;6281;49.038;8.372;2024-01-10T12:44:11;7.90;32.80
12434;DHT22;6281;49.038;8.372;2024-01-10T12:46:49;7.80;31.90
12434;DHT22;6281;49.038;8.372;2024-01-10T12:49:17;8.00;30.00
12434;DHT22;6281;49.038;8.372;2024-01-10T12:51:47;7.80;29.20
12434;DHT22;6281;49.038;8.372;2024-01-10T12:54:12;8.90;26.40
12434;DHT22;6281;49.038;8.372;2024-01-10T12:56:39;8.20;30.50
12434;DHT22;6281;49.038;8.372;2024-01-10T12:59:06;10.50;25.30
12434;DHT22;6281;49.038;8.372;2024-01-10T13:01:35;9.70;25.90
12434;DHT22;6281;49.038;8.372;2024-01-10T13:04:02;8.40;25.50
12434;DHT22;6281;49.038;8.372;2024-01-10T13:06:29;10.30;26.20
12434;DHT22;6281;49.038;8.372;2024-01-10T13:08:57;11.30;23.10
12434;DHT22;6281;49.038;8.372;2024-01-10T13:11:23;10.10;24.00
12434;DHT22;6281;49.038;8.372;2024-01-10T13:13:50;9.70;25.50
12434;DHT22;6281;49.038;8.372;2024-01-10T13:16:17;8.90;28.20
12434;DHT22;6281;49.038;8.372;2024-01-10T13:18:44;8.40;27.30
12434;DHT22;6281;49.038;8.372;2024-01-10T13:21:11;7.70;28.90
12434;DHT22;6281;49.038;8.372;2024-01-10T13:23:39;7.10;32.30
12434;DHT22;6281;49.038;8.372;2024-01-10T13:26:07;5.70;35.10
12434;DHT22;6281;49.038;8.372;2024-01-10T13:28:34;5.30;38.90
12434;DHT22;6281;49.038;8.372;2024-01-10T13:31:01;5.00;40.80
12434;DHT22;6281;49.038;8.372;2024-01-10T13:33:28;5.20;44.70
12434;DHT22;6281;49.038;8.372;2024-01-10T13:35:55;5.80;41.90
12434;DHT22;6281;49.038;8.372;2024-01-10T13:38:23;5.60;41.30
12434;DHT22;6281;49.038;8.372;2024-01-10T13:40:51;5.80;48.70
12434;DHT22;6281;49.038;8.372;2024-01-10T13:43:20;4.70;47.70
12434;DHT22;6281;49.038;8.372;2024-01-10T13:45:46;4.40;48.20
12434;DHT22;6281;49.038;8.372;2024-01-10T13:48:13;4.80;57.30
12434;DHT22;6281;49.038;8.372;2024-01-10T13:50:41;4.50;50.70
12434;DHT22;6281;49.038;8.372;2024-01-10T13:53:08;5.00;65.80
12434;DHT22;6281;49.038;8.372;2024-01-10T13:55:35;5.30;77.60
12434;DHT22;6281;49.038;8.372;2024-01-10T13:58:02;5.10;44.60
12434;DHT22;6281;49.038;8.372;2024-01-10T14:00:31;4.60;44.80
12434;DHT22;6281;49.038;8.372;2024-01-10T14:02:58;4.50;76.60
12434;DHT22;6281;49.038;8.372;2024-01-10T14:05:26;4.10;50.60
12434;DHT22;6281;49.038;8.372;2024-01-10T14:07:54;3.30;57.20
12434;DHT22;6281;49.038;8.372;2024-01-10T14:10:20;3.60;67.10
12434;DHT22;6281;49.038;8.372;2024-01-10T14:12:48;3.40;58.40
12434;DHT22;6281;49.038;8.372;2024-01-10T14:15:14;3.70;70.80
12434;DHT22;6281;49.038;8.372;2024-01-10T14:17:43;3.50;64.20
12434;DHT22;6281;49.038;8.372;2024-01-10T14:20:10;3.30;64.00
12434;DHT22;6281;49.038;8.372;2024-01-10T14:22:38;3.10;82.20
12434;DHT22;6281;49.038;8.372;2024-01-10T14:25:07;3.20;74.30
12434;DHT22;6281;49.038;8.372;2024-01-10T14:27:35;3.20;65.10
12434;DHT22;6281;49.038;8.372;2024-01-10T14:30:04;3.00;83.60
12434;DHT22;6281;49.038;8.372;2024-01-10T14:32:33;3.40;93.20
12434;DHT22;6281;49.038;8.372;2024-01-10T14:35:02;3.20;76.60
12434;DHT22;6281;49.038;8.372;2024-01-10T14:37:30;3.10;89.90
12434;DHT22;6281;49.038;8.372;2024-01-10T14:39:57;3.10;79.50
12434;DHT22;6281;49.038;8.372;2024-01-10T14:42:24;3.00;82.40
12434;DHT22;6281;49.038;8.372;2024-01-10T14:44:51;3.00;80.00
12434;DHT22;6281;49.038;8.372;2024-01-10T14:47:18;2.90;91.90
12434;DHT22;6281;49.038;8.372;2024-01-10T14:49:45;2.90;89.20
12434;DHT22;6281;49.038;8.372;2024-01-10T14:52:13;3.10;95.80
12434;DHT22;6281;49.038;8.372;2024-01-10T14:54:40;3.00;91.50
12434;DHT22;6281;49.038;8.372;2024-01-10T14:57:07;3.10;83.10
12434;DHT22;6281;49.038;8.372;2024-01-10T14:59:34;2.90;87.10
12434;DHT22;6281;49.038;8.372;2024-01-10T15:02:03;2.50;99.90
12434;DHT22;6281;49.038;8.372;2024-01-10T15:04:32;2.30;96.80
12434;DHT22;6281;49.038;8.372;2024-01-10T15:07:02;2.20;99.90
12434;DHT22;6281;49.038;8.372;2024-01-10T15:09:31;2.20;99.90
12434;DHT22;6281;49.038;8.372;2024-01-10T15:11:58;2.10;99.90
12434;DHT22;6281;49.038;8.372;2024-01-10T15:14:24;1.50;99.90
12434;DHT22;6281;49.038;8.372;2024-01-10T15:16:51;1.90;99.90
12434;DHT22;6281;49.038;8.372;2024-01-10T15:19:18;2.10;99.90
12434;DHT22;6281;49.038;8.372;2024-01-10T15:21:45;2.00;99.90
12434;DHT22;6281;49.038;8.372;2024-01-10T15:24:13;1.50;99.90
12434;DHT22;6281;49.038;8.372;2024-01-10T15:26:41;1.70;99.90
12434;DHT22;6281;49.038;8.372;2024-01-10T15:29:08;1.70;99.90
12434;DHT22;6281;49.038;8.372;2024-01-10T15:31:35;1.70;99.90
12434;DHT22;6281;49.038;8.372;2024-01-10T15:34:02;1.80;99.90
12434;DHT22;6281;49.038;8.372;2024-01-10T15:36:29;1.70;99.90
12434;DHT22;6281;49.038;8.372;2024-01-10T15:38:55;1.60;99.90
12434;DHT22;6281;49.038;8.372;2024-01-10T15:41:22;1.50;99.90
12434;DHT22;6281;49.038;8.372;2024-01-10T15:43:50;1.40;99.90
12434;DHT22;6281;49.038;8.372;2024-01-10T15:46:17;1.40;99.90
12434;DHT22;6281;49.038;8.372;2024-01-10T15:48:45;1.50;99.90
12434;DHT22;6281;49.038;8.372;2024-01-10T15:51:11;1.40;99.90
12434;DHT22;6281;49.038;8.372;2024-01-10T15:53:39;1.20;99.90